sensor_id;sensor_type;location;lat;lon;timestamp;temperature;humidity
5621;DHT22;2832;50.864;12.186;2022-08-18T00:00:20;27.80;85.40
5621;DHT22;2832;50.864;12.186;2022-08-18T00:06:05;27.70;85.50
5621;DHT22;2832;50.864;12.186;2022-08-18T00:08:37;27.70;85.70
5621;DHT22;2832;50.864;12.186;2022-08-18T00:11:10;27.70;85.70
5621;DHT22;2832;50.864;12.186;2022-08-18T00:13:40;27.70;85.70
5621;DHT22;2832;50.864;12.186;2022-08-18T00:16:13;27.60;85.80
5621;DHT22;2832;50.864;12.186;2022-08-18T00:18:44;27.60;86.00
5621;DHT22;2832;50.864;12.186;2022-08-18T00:21:18;27.60;86.00
5621;DHT22;2832;50.864;12.186;2022-08-18T00:23:52;27.60;86.10
5621;DHT22;2832;50.864;12.186;2022-08-18T00:26:22;27.50;86.20
5621;DHT22;2832;50.864;12.186;2022-08-18T00:41:17;27.40;86.60
5621;DHT22;2832;50.864;12.186;2022-08-18T00:43:53;27.40;86.50
5621;DHT22;2832;50.864;12.186;2022-08-18T00:46:56;27.40;86.40
5621;DHT22;2832;50.864;12.186;2022-08-18T00:49:45;27.40;87.30
5621;DHT22;2832;50.864;12.186;2022-08-18T00:58:15;27.30;86.70
5621;DHT22;2832;50.864;12.186;2022-08-18T01:01:12;27.30;86.60
5621;DHT22;2832;50.864;12.186;2022-08-18T01:03:50;27.30;86.70
5621;DHT22;2832;50.864;12.186;2022-08-18T01:09:33;27.20;86.80
5621;DHT22;2832;50.864;12.186;2022-08-18T01:12:09;27.20;86.90
5621;DHT22;2832;50.864;12.186;2022-08-18T01:15:00;27.20;87.10
5621;DHT22;2832;50.864;12.186;2022-08-18T01:17:49;27.20;87.20
5621;DHT22;2832;50.864;12.186;2022-08-18T01:21:03;27.20;87.30
5621;DHT22;2832;50.864;12.186;2022-08-18T01:24:11;27.20;87.30
5621;DHT22;2832;50.864;12.186;2022-08-18T01:26:41;27.20;87.40
5621;DHT22;2832;50.864;12.186;2022-08-18T01:29:17;27.10;87.30
5621;DHT22;2832;50.864;12.186;2022-08-18T01:31:49;27.10;87.10
5621;DHT22;2832;50.864;12.186;2022-08-18T01:34:22;27.10;87.00
5621;DHT22;2832;50.864;12.186;2022-08-18T01:36:57;27.10;86.80
5621;DHT22;2832;50.864;12.186;2022-08-18T01:39:32;27.10;86.90
5621;DHT22;2832;50.864;12.186;2022-08-18T01:42:26;27.10;87.00
5621;DHT22;2832;50.864;12.186;2022-08-18T01:45:28;27.00;87.10
5621;DHT22;2832;50.864;12.186;2022-08-18T01:48:18;27.00;87.30
5621;DHT22;2832;50.864;12.186;2022-08-18T01:51:09;27.00;87.40
5621;DHT22;2832;50.864;12.186;2022-08-18T01:53:51;27.00;87.30
5621;DHT22;2832;50.864;12.186;2022-08-18T01:56:21;27.00;87.20
5621;DHT22;2832;50.864;12.186;2022-08-18T01:58:49;27.00;87.40
5621;DHT22;2832;50.864;12.186;2022-08-18T02:01:19;27.00;87.40
5621;DHT22;2832;50.864;12.186;2022-08-18T02:03:52;26.90;87.30
5621;DHT22;2832;50.864;12.186;2022-08-18T02:06:21;26.90;87.20
5621;DHT22;2832;50.864;12.186;2022-08-18T02:08:49;26.90;87.20
5621;DHT22;2832;50.864;12.186;2022-08-18T02:11:17;26.90;87.10
5621;DHT22;2832;50.864;12.186;2022-08-18T02:13:46;26.90;87.00
5621;DHT22;2832;50.864;12.186;2022-08-18T02:16:14;26.90;87.20
5621;DHT22;2832;50.864;12.186;2022-08-18T02:18:44;26.80;87.00
5621;DHT22;2832;50.864;12.186;2022-08-18T02:21:14;26.80;87.10
5621;DHT22;2832;50.864;12.186;2022-08-18T02:23:45;26.80;87.10
5621;DHT22;2832;50.864;12.186;2022-08-18T02:26:20;26.80;86.80
5621;DHT22;2832;50.864;12.186;2022-08-18T02:32:26;26.80;86.70
5621;DHT22;2832;50.864;12.186;2022-08-18T02:34:54;26.80;87.00
5621;DHT22;2832;50.864;12.186;2022-08-18T02:37:23;26.80;87.00
5621;DHT22;2832;50.864;12.186;2022-08-18T02:39:51;26.70;86.90
5621;DHT22;2832;50.864;12.186;2022-08-18T02:43:38;26.70;87.00
5621;DHT22;2832;50.864;12.186;2022-08-18T02:45:36;26.70;87.00
5621;DHT22;2832;50.864;12.186;2022-08-18T02:48:06;26.70;87.00
5621;DHT22;2832;50.864;12.186;2022-08-18T02:50:35;26.60;87.10
5621;DHT22;2832;50.864;12.186;2022-08-18T02:53:11;26.60;87.20
5621;DHT22;2832;50.864;12.186;2022-08-18T02:55:43;26.60;87.40
5621;DHT22;2832;50.864;12.186;2022-08-18T02:58:11;26.60;87.50
5621;DHT22;2832;50.864;12.186;2022-08-18T03:00:39;26.60;87.50
5621;DHT22;2832;50.864;12.186;2022-08-18T03:03:10;26.60;87.50
5621;DHT22;2832;50.864;12.186;2022-08-18T03:05:39;26.60;87.50
5621;DHT22;2832;50.864;12.186;2022-08-18T03:08:13;26.60;87.50
5621;DHT22;2832;50.864;12.186;2022-08-18T03:10:41;26.50;87.50
5621;DHT22;2832;50.864;12.186;2022-08-18T03:13:09;26.50;87.60
5621;DHT22;2832;50.864;12.186;2022-08-18T03:15:38;26.50;87.70
5621;DHT22;2832;50.864;12.186;2022-08-18T03:21:29;26.50;87.90
5621;DHT22;2832;50.864;12.186;2022-08-18T03:24:02;26.40;88.00
5621;DHT22;2832;50.864;12.186;2022-08-18T03:26:38;26.40;88.10
5621;DHT22;2832;50.864;12.186;2022-08-18T03:29:09;26.40;88.30
5621;DHT22;2832;50.864;12.186;2022-08-18T03:31:38;26.40;88.50
5621;DHT22;2832;50.864;12.186;2022-08-18T03:36:51;26.30;88.60
5621;DHT22;2832;50.864;12.186;2022-08-18T03:39:19;26.30;88.50
5621;DHT22;2832;50.864;12.186;2022-08-18T03:41:50;26.30;88.60
5621;DHT22;2832;50.864;12.186;2022-08-18T03:44:22;26.30;88.80
5621;DHT22;2832;50.864;12.186;2022-08-18T03:47:07;26.30;88.90
5621;DHT22;2832;50.864;12.186;2022-08-18T03:49:36;26.30;89.00
5621;DHT22;2832;50.864;12.186;2022-08-18T03:52:09;26.30;89.00
5621;DHT22;2832;50.864;12.186;2022-08-18T03:54:37;26.30;89.10
5621;DHT22;2832;50.864;12.186;2022-08-18T03:57:07;26.20;89.10
5621;DHT22;2832;50.864;12.186;2022-08-18T03:59:58;26.20;89.20
5621;DHT22;2832;50.864;12.186;2022-08-18T04:02:50;26.20;89.20
5621;DHT22;2832;50.864;12.186;2022-08-18T04:05:22;26.20;89.40
5621;DHT22;2832;50.864;12.186;2022-08-18T04:07:52;26.20;89.50
5621;DHT22;2832;50.864;12.186;2022-08-18T04:10:20;26.10;89.40
5621;DHT22;2832;50.864;12.186;2022-08-18T04:12:48;26.10;89.50
5621;DHT22;2832;50.864;12.186;2022-08-18T04:19:56;26.10;89.40
5621;DHT22;2832;50.864;12.186;2022-08-18T04:35:36;26.00;89.40
5621;DHT22;2832;50.864;12.186;2022-08-18T04:38:05;26.00;89.40
5621;DHT22;2832;50.864;12.186;2022-08-18T04:40:35;26.00;89.50
5621;DHT22;2832;50.864;12.186;2022-08-18T04:46:37;25.90;89.80
5621;DHT22;2832;50.864;12.186;2022-08-18T04:49:08;25.90;89.90
5621;DHT22;2832;50.864;12.186;2022-08-18T04:51:40;25.90;89.90
5621;DHT22;2832;50.864;12.186;2022-08-18T04:54:44;25.90;90.00
5621;DHT22;2832;50.864;12.186;2022-08-18T05:01:07;25.70;90.20
5621;DHT22;2832;50.864;12.186;2022-08-18T05:03:35;25.60;90.00
5621;DHT22;2832;50.864;12.186;2022-08-18T05:21:54;25.50;90.40
5621;DHT22;2832;50.864;12.186;2022-08-18T05:24:23;25.50;90.40
5621;DHT22;2832;50.864;12.186;2022-08-18T05:26:58;25.50;90.40
5621;DHT22;2832;50.864;12.186;2022-08-18T05:29:45;25.40;90.50
5621;DHT22;2832;50.864;12.186;2022-08-18T05:33:04;25.40;90.60
5621;DHT22;2832;50.864;12.186;2022-08-18T05:35:41;25.40;90.70
5621;DHT22;2832;50.864;12.186;2022-08-18T05:38:23;25.40;90.80
5621;DHT22;2832;50.864;12.186;2022-08-18T05:44:36;25.00;91.20
5621;DHT22;2832;50.864;12.186;2022-08-18T05:47:12;24.80;91.60
5621;DHT22;2832;50.864;12.186;2022-08-18T05:49:43;24.80;91.70
5621;DHT22;2832;50.864;12.186;2022-08-18T05:52:17;24.90;91.70
5621;DHT22;2832;50.864;12.186;2022-08-18T05:55:00;25.00;91.60
5621;DHT22;2832;50.864;12.186;2022-08-18T05:57:50;25.10;91.60
5621;DHT22;2832;50.864;12.186;2022-08-18T06:00:20;25.10;91.60
5621;DHT22;2832;50.864;12.186;2022-08-18T06:02:54;25.10;91.50
5621;DHT22;2832;50.864;12.186;2022-08-18T06:05:51;25.20;91.50
5621;DHT22;2832;50.864;12.186;2022-08-18T06:12:18;25.20;91.50
5621;DHT22;2832;50.864;12.186;2022-08-18T06:15:13;25.20;91.50
5621;DHT22;2832;50.864;12.186;2022-08-18T06:18:22;25.20;91.90
5621;DHT22;2832;50.864;12.186;2022-08-18T06:24:17;25.20;92.40
5621;DHT22;2832;50.864;12.186;2022-08-18T06:27:07;25.30;92.50
5621;DHT22;2832;50.864;12.186;2022-08-18T06:30:11;25.20;92.60
5621;DHT22;2832;50.864;12.186;2022-08-18T06:33:06;25.30;92.70
5621;DHT22;2832;50.864;12.186;2022-08-18T06:39:11;25.30;92.50
5621;DHT22;2832;50.864;12.186;2022-08-18T06:41:46;25.30;92.60
5621;DHT22;2832;50.864;12.186;2022-08-18T06:44:22;25.30;92.50
5621;DHT22;2832;50.864;12.186;2022-08-18T06:47:10;25.30;92.50
5621;DHT22;2832;50.864;12.186;2022-08-18T06:50:03;25.30;92.50
5621;DHT22;2832;50.864;12.186;2022-08-18T06:52:34;25.30;92.30
5621;DHT22;2832;50.864;12.186;2022-08-18T06:55:06;25.30;92.40
5621;DHT22;2832;50.864;12.186;2022-08-18T06:57:36;25.30;92.50
5621;DHT22;2832;50.864;12.186;2022-08-18T07:00:23;25.30;92.50
5621;DHT22;2832;50.864;12.186;2022-08-18T07:02:58;25.30;92.50
5621;DHT22;2832;50.864;12.186;2022-08-18T07:05:34;25.30;92.60
5621;DHT22;2832;50.864;12.186;2022-08-18T07:08:09;25.30;92.50
5621;DHT22;2832;50.864;12.186;2022-08-18T07:10:40;25.30;92.50
5621;DHT22;2832;50.864;12.186;2022-08-18T07:13:19;25.30;92.30
5621;DHT22;2832;50.864;12.186;2022-08-18T07:15:49;25.40;92.40
5621;DHT22;2832;50.864;12.186;2022-08-18T07:18:25;25.30;92.40
5621;DHT22;2832;50.864;12.186;2022-08-18T07:20:56;25.40;92.80
5621;DHT22;2832;50.864;12.186;2022-08-18T07:23:28;25.40;93.10
5621;DHT22;2832;50.864;12.186;2022-08-18T07:26:04;25.40;93.40
5621;DHT22;2832;50.864;12.186;2022-08-18T07:28:36;25.40;93.60
5621;DHT22;2832;50.864;12.186;2022-08-18T07:31:18;25.40;93.60
5621;DHT22;2832;50.864;12.186;2022-08-18T07:33:51;25.40;93.60
5621;DHT22;2832;50.864;12.186;2022-08-18T07:36:26;25.40;93.50
5621;DHT22;2832;50.864;12.186;2022-08-18T07:38:59;25.40;93.40
5621;DHT22;2832;50.864;12.186;2022-08-18T07:41:32;25.40;93.30
5621;DHT22;2832;50.864;12.186;2022-08-18T07:44:12;25.40;93.40
5621;DHT22;2832;50.864;12.186;2022-08-18T07:46:55;25.40;93.60
5621;DHT22;2832;50.864;12.186;2022-08-18T07:49:48;25.40;93.80
5621;DHT22;2832;50.864;12.186;2022-08-18T07:52:21;25.30;93.90
5621;DHT22;2832;50.864;12.186;2022-08-18T07:54:58;25.30;93.90
5621;DHT22;2832;50.864;12.186;2022-08-18T07:58:10;25.30;94.00
5621;DHT22;2832;50.864;12.186;2022-08-18T08:00:49;25.30;94.00
5621;DHT22;2832;50.864;12.186;2022-08-18T08:03:31;25.30;94.00
5621;DHT22;2832;50.864;12.186;2022-08-18T08:06:06;25.30;93.80
5621;DHT22;2832;50.864;12.186;2022-08-18T08:08:42;25.40;93.70
5621;DHT22;2832;50.864;12.186;2022-08-18T08:14:28;25.40;93.60
5621;DHT22;2832;50.864;12.186;2022-08-18T08:17:10;25.40;93.40
5621;DHT22;2832;50.864;12.186;2022-08-18T08:20:03;25.50;93.30
5621;DHT22;2832;50.864;12.186;2022-08-18T08:23:14;25.50;93.20
5621;DHT22;2832;50.864;12.186;2022-08-18T08:26:21;25.50;92.80
5621;DHT22;2832;50.864;12.186;2022-08-18T08:29:04;25.50;91.90
5621;DHT22;2832;50.864;12.186;2022-08-18T08:31:43;25.50;91.60
5621;DHT22;2832;50.864;12.186;2022-08-18T08:34:19;25.40;91.40
5621;DHT22;2832;50.864;12.186;2022-08-18T08:36:59;25.50;91.20
5621;DHT22;2832;50.864;12.186;2022-08-18T08:39:39;25.50;91.20
5621;DHT22;2832;50.864;12.186;2022-08-18T08:42:30;25.40;91.10
5621;DHT22;2832;50.864;12.186;2022-08-18T08:45:15;25.40;91.30
5621;DHT22;2832;50.864;12.186;2022-08-18T08:47:54;25.40;91.50
5621;DHT22;2832;50.864;12.186;2022-08-18T08:50:26;25.30;91.30
5621;DHT22;2832;50.864;12.186;2022-08-18T08:53:02;25.30;91.30
5621;DHT22;2832;50.864;12.186;2022-08-18T08:58:38;25.30;91.30
5621;DHT22;2832;50.864;12.186;2022-08-18T09:01:18;25.30;91.40
5621;DHT22;2832;50.864;12.186;2022-08-18T09:03:58;25.30;91.50
5621;DHT22;2832;50.864;12.186;2022-08-18T09:06:36;25.30;91.60
5621;DHT22;2832;50.864;12.186;2022-08-18T09:09:24;25.30;91.60
5621;DHT22;2832;50.864;12.186;2022-08-18T09:12:17;25.30;91.70
5621;DHT22;2832;50.864;12.186;2022-08-18T09:15:21;25.30;91.80
5621;DHT22;2832;50.864;12.186;2022-08-18T09:21:39;25.30;92.00
5621;DHT22;2832;50.864;12.186;2022-08-18T09:24:25;25.30;92.10
5621;DHT22;2832;50.864;12.186;2022-08-18T09:27:15;25.30;92.10
5621;DHT22;2832;50.864;12.186;2022-08-18T09:29:53;25.30;92.10
5621;DHT22;2832;50.864;12.186;2022-08-18T09:35:55;25.30;92.20
5621;DHT22;2832;50.864;12.186;2022-08-18T09:42:04;25.20;92.20
5621;DHT22;2832;50.864;12.186;2022-08-18T09:44:57;25.20;92.50
5621;DHT22;2832;50.864;12.186;2022-08-18T09:48:00;25.20;92.30
5621;DHT22;2832;50.864;12.186;2022-08-18T09:54:10;25.20;92.60
5621;DHT22;2832;50.864;12.186;2022-08-18T10:00:27;25.20;93.10
5621;DHT22;2832;50.864;12.186;2022-08-18T10:03:12;25.10;93.70
5621;DHT22;2832;50.864;12.186;2022-08-18T10:06:05;25.00;94.10
5621;DHT22;2832;50.864;12.186;2022-08-18T10:09:23;25.00;94.40
5621;DHT22;2832;50.864;12.186;2022-08-18T10:15:31;25.00;95.00
5621;DHT22;2832;50.864;12.186;2022-08-18T10:21:09;25.10;95.10
5621;DHT22;2832;50.864;12.186;2022-08-18T10:23:48;25.20;95.20
5621;DHT22;2832;50.864;12.186;2022-08-18T10:29:53;25.30;95.40
5621;DHT22;2832;50.864;12.186;2022-08-18T10:39:41;25.20;95.80
5621;DHT22;2832;50.864;12.186;2022-08-18T10:42:12;25.20;95.90
5621;DHT22;2832;50.864;12.186;2022-08-18T10:45:31;25.20;96.00
5621;DHT22;2832;50.864;12.186;2022-08-18T10:51:36;25.20;96.20
5621;DHT22;2832;50.864;12.186;2022-08-18T10:54:15;25.10;96.60
5621;DHT22;2832;50.864;12.186;2022-08-18T10:56:48;25.00;96.40
5621;DHT22;2832;50.864;12.186;2022-08-18T10:59:24;24.90;96.70
5621;DHT22;2832;50.864;12.186;2022-08-18T11:02:15;24.90;96.90
5621;DHT22;2832;50.864;12.186;2022-08-18T11:04:47;24.90;97.20
5621;DHT22;2832;50.864;12.186;2022-08-18T11:07:21;24.90;97.30
5621;DHT22;2832;50.864;12.186;2022-08-18T11:12:57;24.90;97.30
5621;DHT22;2832;50.864;12.186;2022-08-18T11:15:41;24.90;97.40
5621;DHT22;2832;50.864;12.186;2022-08-18T11:18:25;25.00;97.40
5621;DHT22;2832;50.864;12.186;2022-08-18T11:24:11;25.10;97.20
5621;DHT22;2832;50.864;12.186;2022-08-18T11:26:43;25.10;97.20
5621;DHT22;2832;50.864;12.186;2022-08-18T11:29:26;25.10;97.20
5621;DHT22;2832;50.864;12.186;2022-08-18T11:31:58;25.10;97.20
5621;DHT22;2832;50.864;12.186;2022-08-18T11:34:43;25.10;97.40
5621;DHT22;2832;50.864;12.186;2022-08-18T11:37:22;25.20;97.60
5621;DHT22;2832;50.864;12.186;2022-08-18T11:39:56;25.20;97.70
5621;DHT22;2832;50.864;12.186;2022-08-18T11:42:30;25.20;97.90
5621;DHT22;2832;50.864;12.186;2022-08-18T11:45:06;25.20;98.30
5621;DHT22;2832;50.864;12.186;2022-08-18T11:47:59;25.10;98.60
5621;DHT22;2832;50.864;12.186;2022-08-18T11:50:30;25.10;99.10
5621;DHT22;2832;50.864;12.186;2022-08-18T11:53:14;25.10;99.20
5621;DHT22;2832;50.864;12.186;2022-08-18T11:56:10;25.10;99.50
5621;DHT22;2832;50.864;12.186;2022-08-18T11:58:40;25.00;99.60
5621;DHT22;2832;50.864;12.186;2022-08-18T12:01:50;25.00;99.90
5621;DHT22;2832;50.864;12.186;2022-08-18T12:04:40;25.10;99.90
5621;DHT22;2832;50.864;12.186;2022-08-18T12:07:10;25.00;99.90
5621;DHT22;2832;50.864;12.186;2022-08-18T12:10:13;25.10;99.90
5621;DHT22;2832;50.864;12.186;2022-08-18T12:12:57;25.20;99.90
5621;DHT22;2832;50.864;12.186;2022-08-18T12:15:29;25.20;99.90
5621;DHT22;2832;50.864;12.186;2022-08-18T12:18:02;25.20;99.90
5621;DHT22;2832;50.864;12.186;2022-08-18T12:20:33;25.20;99.90
5621;DHT22;2832;50.864;12.186;2022-08-18T12:23:01;25.20;99.90
5621;DHT22;2832;50.864;12.186;2022-08-18T12:25:31;25.10;99.90
5621;DHT22;2832;50.864;12.186;2022-08-18T12:28:47;25.10;99.90
5621;DHT22;2832;50.864;12.186;2022-08-18T12:37:57;25.10;99.90
5621;DHT22;2832;50.864;12.186;2022-08-18T12:40:35;25.10;99.90
5621;DHT22;2832;50.864;12.186;2022-08-18T12:43:27;25.10;99.90
5621;DHT22;2832;50.864;12.186;2022-08-18T12:46:03;25.10;99.90
5621;DHT22;2832;50.864;12.186;2022-08-18T12:48:43;25.10;99.90
5621;DHT22;2832;50.864;12.186;2022-08-18T12:51:12;25.00;99.90
5621;DHT22;2832;50.864;12.186;2022-08-18T12:53:40;25.00;99.90
5621;DHT22;2832;50.864;12.186;2022-08-18T12:56:17;25.00;99.90
5621;DHT22;2832;50.864;12.186;2022-08-18T12:58:48;25.00;99.90
5621;DHT22;2832;50.864;12.186;2022-08-18T13:01:17;24.70;99.90
5621;DHT22;2832;50.864;12.186;2022-08-18T13:03:46;24.50;99.90
5621;DHT22;2832;50.864;12.186;2022-08-18T13:06:15;24.30;99.90
5621;DHT22;2832;50.864;12.186;2022-08-18T13:08:43;24.20;99.90
5621;DHT22;2832;50.864;12.186;2022-08-18T13:11:11;24.30;99.90
5621;DHT22;2832;50.864;12.186;2022-08-18T13:13:39;24.30;99.90
5621;DHT22;2832;50.864;12.186;2022-08-18T13:16:13;24.40;99.90
5621;DHT22;2832;50.864;12.186;2022-08-18T13:18:42;24.50;99.90
5621;DHT22;2832;50.864;12.186;2022-08-18T13:21:11;24.50;99.90
5621;DHT22;2832;50.864;12.186;2022-08-18T13:23:40;24.60;99.90
5621;DHT22;2832;50.864;12.186;2022-08-18T13:26:40;24.50;99.90
5621;DHT22;2832;50.864;12.186;2022-08-18T13:29:38;24.50;99.90
5621;DHT22;2832;50.864;12.186;2022-08-18T13:32:09;24.40;99.90
5621;DHT22;2832;50.864;12.186;2022-08-18T13:34:38;24.40;99.90
5621;DHT22;2832;50.864;12.186;2022-08-18T13:37:26;24.40;99.90
5621;DHT22;2832;50.864;12.186;2022-08-18T13:39:58;24.40;99.90
5621;DHT22;2832;50.864;12.186;2022-08-18T13:42:26;24.40;99.90
5621;DHT22;2832;50.864;12.186;2022-08-18T13:44:57;24.50;99.90
5621;DHT22;2832;50.864;12.186;2022-08-18T13:47:27;24.60;99.90
5621;DHT22;2832;50.864;12.186;2022-08-18T13:49:57;24.60;99.90
5621;DHT22;2832;50.864;12.186;2022-08-18T13:52:27;24.50;99.90
5621;DHT22;2832;50.864;12.186;2022-08-18T13:54:56;24.50;99.90
5621;DHT22;2832;50.864;12.186;2022-08-18T13:57:27;24.40;99.90
5621;DHT22;2832;50.864;12.186;2022-08-18T14:00:05;24.40;99.90
5621;DHT22;2832;50.864;12.186;2022-08-18T14:02:39;24.50;99.90
5621;DHT22;2832;50.864;12.186;2022-08-18T14:05:09;24.60;99.90
5621;DHT22;2832;50.864;12.186;2022-08-18T14:07:37;24.70;99.90
5621;DHT22;2832;50.864;12.186;2022-08-18T14:10:06;24.80;99.90
5621;DHT22;2832;50.864;12.186;2022-08-18T14:12:36;24.90;99.90
5621;DHT22;2832;50.864;12.186;2022-08-18T14:15:10;24.90;99.90
5621;DHT22;2832;50.864;12.186;2022-08-18T14:17:41;25.00;99.90
5621;DHT22;2832;50.864;12.186;2022-08-18T14:20:11;25.10;99.90
5621;DHT22;2832;50.864;12.186;2022-08-18T14:22:58;25.10;99.90
5621;DHT22;2832;50.864;12.186;2022-08-18T14:25:49;25.10;99.90
5621;DHT22;2832;50.864;12.186;2022-08-18T14:28:39;25.20;99.90
5621;DHT22;2832;50.864;12.186;2022-08-18T14:31:16;25.30;99.90
5621;DHT22;2832;50.864;12.186;2022-08-18T14:33:56;25.30;99.90
5621;DHT22;2832;50.864;12.186;2022-08-18T14:36:25;25.30;99.90
5621;DHT22;2832;50.864;12.186;2022-08-18T14:38:53;25.20;99.90
5621;DHT22;2832;50.864;12.186;2022-08-18T14:41:23;25.30;99.90
5621;DHT22;2832;50.864;12.186;2022-08-18T14:43:52;25.30;99.90
5621;DHT22;2832;50.864;12.186;2022-08-18T14:46:22;25.30;99.90
5621;DHT22;2832;50.864;12.186;2022-08-18T14:48:50;25.30;99.90
5621;DHT22;2832;50.864;12.186;2022-08-18T14:51:20;25.30;99.90
5621;DHT22;2832;50.864;12.186;2022-08-18T14:53:50;25.30;99.90
5621;DHT22;2832;50.864;12.186;2022-08-18T14:56:18;25.30;99.90
5621;DHT22;2832;50.864;12.186;2022-08-18T14:58:46;25.30;99.90
5621;DHT22;2832;50.864;12.186;2022-08-18T15:01:16;25.30;99.90
5621;DHT22;2832;50.864;12.186;2022-08-18T15:03:51;25.30;99.90
5621;DHT22;2832;50.864;12.186;2022-08-18T15:06:21;25.20;99.90
5621;DHT22;2832;50.864;12.186;2022-08-18T15:08:49;25.00;99.90
5621;DHT22;2832;50.864;12.186;2022-08-18T15:11:21;24.70;99.90
5621;DHT22;2832;50.864;12.186;2022-08-18T15:13:53;24.60;99.90
5621;DHT22;2832;50.864;12.186;2022-08-18T15:16:27;24.50;99.90
5621;DHT22;2832;50.864;12.186;2022-08-18T15:19:02;24.60;99.90
5621;DHT22;2832;50.864;12.186;2022-08-18T15:21:33;24.70;99.90
5621;DHT22;2832;50.864;12.186;2022-08-18T15:24:18;24.80;99.90
5621;DHT22;2832;50.864;12.186;2022-08-18T15:27:04;24.90;99.90
5621;DHT22;2832;50.864;12.186;2022-08-18T15:29:34;24.90;99.90
5621;DHT22;2832;50.864;12.186;2022-08-18T15:32:03;24.70;99.90
5621;DHT22;2832;50.864;12.186;2022-08-18T15:34:32;24.60;99.90
5621;DHT22;2832;50.864;12.186;2022-08-18T15:37:01;24.50;99.90
5621;DHT22;2832;50.864;12.186;2022-08-18T15:39:31;24.50;99.90
5621;DHT22;2832;50.864;12.186;2022-08-18T15:42:00;24.40;99.90
5621;DHT22;2832;50.864;12.186;2022-08-18T15:44:35;24.30;99.90
5621;DHT22;2832;50.864;12.186;2022-08-18T15:47:05;24.30;99.90
5621;DHT22;2832;50.864;12.186;2022-08-18T15:49:35;24.30;99.90
5621;DHT22;2832;50.864;12.186;2022-08-18T15:52:17;24.30;99.90
5621;DHT22;2832;50.864;12.186;2022-08-18T15:54:55;24.30;99.90
5621;DHT22;2832;50.864;12.186;2022-08-18T15:57:27;24.40;99.90
5621;DHT22;2832;50.864;12.186;2022-08-18T15:59:56;24.50;99.90
5621;DHT22;2832;50.864;12.186;2022-08-18T16:02:27;24.60;99.90
5621;DHT22;2832;50.864;12.186;2022-08-18T16:04:58;24.70;99.90
5621;DHT22;2832;50.864;12.186;2022-08-18T16:07:31;24.70;99.90
5621;DHT22;2832;50.864;12.186;2022-08-18T16:10:09;24.60;99.90
5621;DHT22;2832;50.864;12.186;2022-08-18T16:12:51;24.60;99.90
5621;DHT22;2832;50.864;12.186;2022-08-18T16:15:22;24.60;99.90
5621;DHT22;2832;50.864;12.186;2022-08-18T16:18:01;24.60;99.90
5621;DHT22;2832;50.864;12.186;2022-08-18T16:20:29;24.60;99.90
5621;DHT22;2832;50.864;12.186;2022-08-18T16:22:59;24.60;99.90
5621;DHT22;2832;50.864;12.186;2022-08-18T16:25:27;24.60;99.90
5621;DHT22;2832;50.864;12.186;2022-08-18T16:27:57;24.70;99.90
5621;DHT22;2832;50.864;12.186;2022-08-18T16:30:30;24.80;99.90
5621;DHT22;2832;50.864;12.186;2022-08-18T16:33:04;24.90;99.90
5621;DHT22;2832;50.864;12.186;2022-08-18T16:35:34;24.90;99.90
5621;DHT22;2832;50.864;12.186;2022-08-18T16:38:18;24.90;99.90
5621;DHT22;2832;50.864;12.186;2022-08-18T16:41:05;25.00;99.90
5621;DHT22;2832;50.864;12.186;2022-08-18T16:43:41;25.10;99.90
5621;DHT22;2832;50.864;12.186;2022-08-18T16:46:10;25.10;99.90
5621;DHT22;2832;50.864;12.186;2022-08-18T16:48:56;25.10;99.90
5621;DHT22;2832;50.864;12.186;2022-08-18T16:51:48;25.20;99.90
5621;DHT22;2832;50.864;12.186;2022-08-18T16:54:25;25.20;99.90
5621;DHT22;2832;50.864;12.186;2022-08-18T16:57:11;25.20;99.90
5621;DHT22;2832;50.864;12.186;2022-08-18T17:00:07;25.30;99.90
5621;DHT22;2832;50.864;12.186;2022-08-18T17:03:15;25.30;99.90
5621;DHT22;2832;50.864;12.186;2022-08-18T17:06:09;25.30;99.90
5621;DHT22;2832;50.864;12.186;2022-08-18T17:08:43;25.40;99.90
5621;DHT22;2832;50.864;12.186;2022-08-18T17:11:14;25.40;99.90
5621;DHT22;2832;50.864;12.186;2022-08-18T17:13:44;25.50;99.90
5621;DHT22;2832;50.864;12.186;2022-08-18T17:16:17;25.50;99.90
5621;DHT22;2832;50.864;12.186;2022-08-18T17:18:51;25.60;99.90
5621;DHT22;2832;50.864;12.186;2022-08-18T17:21:21;25.50;99.90
5621;DHT22;2832;50.864;12.186;2022-08-18T17:23:50;25.60;99.90
5621;DHT22;2832;50.864;12.186;2022-08-18T17:26:28;25.50;99.90
5621;DHT22;2832;50.864;12.186;2022-08-18T17:29:09;25.50;99.90
5621;DHT22;2832;50.864;12.186;2022-08-18T17:31:52;25.50;99.90
5621;DHT22;2832;50.864;12.186;2022-08-18T17:34:29;25.40;99.90
5621;DHT22;2832;50.864;12.186;2022-08-18T17:36:59;25.50;99.90
5621;DHT22;2832;50.864;12.186;2022-08-18T17:40:00;25.40;99.90
5621;DHT22;2832;50.864;12.186;2022-08-18T17:42:50;25.40;99.90
5621;DHT22;2832;50.864;12.186;2022-08-18T17:45:20;25.20;99.90
5621;DHT22;2832;50.864;12.186;2022-08-18T17:47:56;25.20;99.90
5621;DHT22;2832;50.864;12.186;2022-08-18T17:50:37;25.20;99.90
5621;DHT22;2832;50.864;12.186;2022-08-18T17:53:24;25.30;99.90
5621;DHT22;2832;50.864;12.186;2022-08-18T17:55:58;25.30;99.90
5621;DHT22;2832;50.864;12.186;2022-08-18T17:58:36;25.40;99.90
5621;DHT22;2832;50.864;12.186;2022-08-18T18:01:07;25.40;99.90
5621;DHT22;2832;50.864;12.186;2022-08-18T18:03:52;25.50;99.90
5621;DHT22;2832;50.864;12.186;2022-08-18T18:06:40;25.50;99.90
5621;DHT22;2832;50.864;12.186;2022-08-18T18:09:11;25.50;99.90
5621;DHT22;2832;50.864;12.186;2022-08-18T18:12:24;25.60;99.90
5621;DHT22;2832;50.864;12.186;2022-08-18T18:15:20;25.50;99.90
5621;DHT22;2832;50.864;12.186;2022-08-18T18:17:58;25.40;99.90
5621;DHT22;2832;50.864;12.186;2022-08-18T18:24:13;25.40;99.90
5621;DHT22;2832;50.864;12.186;2022-08-18T18:26:53;25.50;99.90
5621;DHT22;2832;50.864;12.186;2022-08-18T18:29:29;25.50;99.90
5621;DHT22;2832;50.864;12.186;2022-08-18T18:32:21;25.40;99.90
5621;DHT22;2832;50.864;12.186;2022-08-18T18:35:09;25.40;99.90
5621;DHT22;2832;50.864;12.186;2022-08-18T18:37:58;25.30;99.90
5621;DHT22;2832;50.864;12.186;2022-08-18T18:40:52;25.30;99.90
5621;DHT22;2832;50.864;12.186;2022-08-18T18:44:24;25.30;99.90
5621;DHT22;2832;50.864;12.186;2022-08-18T18:50:28;25.40;99.90
5621;DHT22;2832;50.864;12.186;2022-08-18T18:53:16;25.50;99.90
5621;DHT22;2832;50.864;12.186;2022-08-18T18:55:52;25.50;99.90
5621;DHT22;2832;50.864;12.186;2022-08-18T18:58:33;25.50;99.90
5621;DHT22;2832;50.864;12.186;2022-08-18T19:01:16;25.50;99.90
5621;DHT22;2832;50.864;12.186;2022-08-18T19:07:02;25.50;99.90
5621;DHT22;2832;50.864;12.186;2022-08-18T19:09:37;25.10;99.90
5621;DHT22;2832;50.864;12.186;2022-08-18T19:12:15;24.90;99.90
5621;DHT22;2832;50.864;12.186;2022-08-18T19:14:47;24.80;99.90
5621;DHT22;2832;50.864;12.186;2022-08-18T19:17:26;24.80;99.90
5621;DHT22;2832;50.864;12.186;2022-08-18T19:20:03;24.90;99.90
5621;DHT22;2832;50.864;12.186;2022-08-18T19:22:40;25.00;99.90
5621;DHT22;2832;50.864;12.186;2022-08-18T19:25:20;25.00;99.90
5621;DHT22;2832;50.864;12.186;2022-08-18T19:27:52;25.10;99.90
5621;DHT22;2832;50.864;12.186;2022-08-18T19:30:23;25.20;99.90